South Harwich, Massachusetts
Current Conditions -  °F | °C
As of 6:52 AM on Monday 24 Nov 2014 (Local Time) from KCQX Reporting Station
Overcast Overcast  
Wind Chill: 55°   Ceiling: 5500
Heat Index: 55°   Visibility: 10mi
Dew Point: 52°   Wind: 15mph
Humidity: 89%   Direction: 160°SSE
Pressure: 29.96"   Gusts: 26mph
Location:  41.67°N, 70.04°W
Report Text: KCQX 241152Z AUTO 16013G23KT 10SM FEW038 OVC055 13/11 A2996 RMK AO2 RAB22E43 SLP145 P0000 60000 T01280111 10128 20094 58030
Loading
Personal Weather Stations






























Interactive Weather Map New forecast layout! Learn more

10-Day Weather Forecast

Advertisements
Track Severe Weather on mobile